createdAt,value
2022-10-06T00:01:21.453Z,4.17
2022-10-06T00:03:49.207Z,2.17
2022-10-06T00:06:19.114Z,6.77
2022-10-06T00:08:48.038Z,3.67
2022-10-06T00:11:17.302Z,1.43
2022-10-06T00:13:45.680Z,3.37
2022-10-06T00:16:17.317Z,2.73
2022-10-06T00:18:45.659Z,2.50
2022-10-06T00:21:13.571Z,3.97
2022-10-06T00:23:42.896Z,2.47
2022-10-06T00:26:12.231Z,1.77
2022-10-06T00:28:43.683Z,1.30
2022-10-06T00:31:12.044Z,1.10
2022-10-06T00:33:40.485Z,1.60
2022-10-06T00:36:08.482Z,2.40
2022-10-06T00:38:36.518Z,2.90
2022-10-06T00:41:05.977Z,2.37
2022-10-06T00:43:45.294Z,2.90
2022-10-06T00:46:17.007Z,2.33
2022-10-06T00:48:47.465Z,2.17
2022-10-06T00:51:15.963Z,2.15
2022-10-06T00:53:43.948Z,2.70
2022-10-06T00:56:13.623Z,4.50
2022-10-06T00:58:41.493Z,5.87
2022-10-06T01:01:10.417Z,3.17
2022-10-06T01:03:42.136Z,2.93
2022-10-06T01:06:10.530Z,3.70
2022-10-06T01:08:39.103Z,3.28
2022-10-06T01:11:07.416Z,2.85
2022-10-06T01:13:36.800Z,5.05
2022-10-06T01:16:11.595Z,3.33
2022-10-06T01:18:42.654Z,7.00
2022-10-06T01:21:15.903Z,4.37
2022-10-06T01:23:45.670Z,3.40
2022-10-06T01:26:15.698Z,4.00
2022-10-06T01:28:43.594Z,5.63
2022-10-06T01:31:11.918Z,6.60
2022-10-06T01:33:39.927Z,4.93
2022-10-06T01:36:08.679Z,5.07
2022-10-06T01:38:37.226Z,4.93
2022-10-06T01:41:08.715Z,4.43
2022-10-06T01:43:36.740Z,5.37
2022-10-06T01:46:06.498Z,4.97
2022-10-06T01:48:36.474Z,5.37
2022-10-06T01:51:04.711Z,5.87
2022-10-06T01:53:33.616Z,2.97
2022-10-06T01:56:01.448Z,4.27
2022-10-06T01:58:32.840Z,5.80
2022-10-06T02:01:05.963Z,5.43
2022-10-06T02:03:35.420Z,7.20
2022-10-06T02:06:03.434Z,4.73
2022-10-06T02:08:32.411Z,6.05
2022-10-06T02:11:06.778Z,6.78
2022-10-06T02:13:36.239Z,7.63
2022-10-06T02:16:06.622Z,5.00
2022-10-06T02:18:35.239Z,3.50
2022-10-06T02:21:03.759Z,10.68
2022-10-06T02:23:32.130Z,5.90
2022-10-06T02:26:00.541Z,6.90
2022-10-06T02:28:29.473Z,5.50
2022-10-06T02:31:03.271Z,4.87
2022-10-06T02:33:31.192Z,6.73
2022-10-06T02:35:59.349Z,3.80
2022-10-06T02:38:29.639Z,8.60
2022-10-06T02:40:58.096Z,6.23
2022-10-06T02:43:31.642Z,4.90
2022-10-06T02:46:05.216Z,4.63
2022-10-06T02:48:34.853Z,4.37
2022-10-06T02:51:06.938Z,6.80
2022-10-06T02:53:35.027Z,3.83
2022-10-06T02:56:05.387Z,6.33
2022-10-06T02:58:34.048Z,5.43
2022-10-06T03:01:10.326Z,7.93
2022-10-06T03:03:38.597Z,9.40
2022-10-06T03:06:21.685Z,8.03
2022-10-06T03:08:57.194Z,7.90
2022-10-06T03:11:27.270Z,7.43
2022-10-06T03:13:55.806Z,7.97
2022-10-06T03:16:27.149Z,4.73
2022-10-06T03:18:56.163Z,5.37
2022-10-06T03:21:25.964Z,6.30
2022-10-06T03:23:56.440Z,9.07
2022-10-06T03:26:28.667Z,7.93
2022-10-06T03:28:57.629Z,7.13
2022-10-06T03:31:27.351Z,9.17
2022-10-06T03:33:56.992Z,5.90
2022-10-06T03:36:29.338Z,7.68
2022-10-06T03:38:57.017Z,7.53
2022-10-06T03:41:26.800Z,9.37
2022-10-06T03:43:56.656Z,9.07
2022-10-06T03:46:28.069Z,10.37
2022-10-06T03:48:57.163Z,7.50
2022-10-06T03:51:28.194Z,8.90
2022-10-06T03:53:56.927Z,8.43
2022-10-06T03:56:26.619Z,7.83
2022-10-06T03:58:56.006Z,8.53
2022-10-06T04:01:26.787Z,4.57
2022-10-06T04:03:57.388Z,5.23
2022-10-06T04:06:26.961Z,9.33
2022-10-06T04:08:55.750Z,6.37
2022-10-06T04:11:25.039Z,6.03
2022-10-06T04:13:56.669Z,9.27
2022-10-06T04:16:27.039Z,6.10
2022-10-06T04:18:58.647Z,6.37
2022-10-06T04:21:27.486Z,8.93
2022-10-06T04:23:58.253Z,8.80
2022-10-06T04:26:28.063Z,10.67
2022-10-06T04:28:55.811Z,9.48
2022-10-06T04:31:25.303Z,9.00
2022-10-06T04:33:54.637Z,6.03
2022-10-06T04:36:26.615Z,7.60
2022-10-06T04:38:58.881Z,6.33
2022-10-06T04:41:31.451Z,11.20
2022-10-06T04:44:00.721Z,8.77
2022-10-06T04:46:45.587Z,9.63
2022-10-06T04:49:19.984Z,5.43
2022-10-06T04:51:50.356Z,6.03
2022-10-06T04:54:19.590Z,7.33
2022-10-06T04:56:50.673Z,11.03
2022-10-06T04:59:20.823Z,9.30
2022-10-06T05:01:49.250Z,5.80
2022-10-06T05:04:17.803Z,7.83
2022-10-06T05:06:45.494Z,4.77
2022-10-06T05:09:16.279Z,8.20
2022-10-06T05:11:54.004Z,6.93
2022-10-06T05:14:22.875Z,10.57
2022-10-06T05:16:51.129Z,11.23
2022-10-06T05:19:18.903Z,7.23
2022-10-06T05:21:46.635Z,7.57
2022-10-06T05:24:19.611Z,7.70
2022-10-06T05:26:47.323Z,9.77
2022-10-06T05:29:16.490Z,12.10
2022-10-06T05:31:45.403Z,7.37
2022-10-06T05:34:15.079Z,9.87
2022-10-06T05:36:42.871Z,13.17
2022-10-06T05:39:12.655Z,11.53
2022-10-06T05:41:47.047Z,8.87
2022-10-06T05:44:15.427Z,12.43
2022-10-06T05:46:44.786Z,12.53
2022-10-06T05:49:13.336Z,10.03
2022-10-06T05:51:49.270Z,9.67
2022-10-06T05:54:22.148Z,5.97
2022-10-06T05:56:51.908Z,8.17
2022-10-06T05:59:19.722Z,16.20
2022-10-06T06:01:48.015Z,13.87
2022-10-06T06:04:36.463Z,11.80
2022-10-06T06:07:04.546Z,9.90
2022-10-06T06:09:32.610Z,9.13
2022-10-06T06:12:03.326Z,11.53
2022-10-06T06:15:01.496Z,14.17
2022-10-06T06:17:34.778Z,14.37
2022-10-06T06:20:05.695Z,11.43
2022-10-06T06:22:33.719Z,16.73
2022-10-06T06:25:02.189Z,11.30
2022-10-06T06:27:32.357Z,7.30
2022-10-06T06:30:00.155Z,11.57
2022-10-06T06:32:29.612Z,14.33
2022-10-06T06:34:59.008Z,14.80
2022-10-06T06:37:28.596Z,17.97
2022-10-06T06:39:56.696Z,15.70
2022-10-06T06:42:24.571Z,13.80
2022-10-06T06:45:09.277Z,14.93
2022-10-06T06:47:41.958Z,11.40
2022-10-06T06:50:10.794Z,11.80
2022-10-06T06:52:41.865Z,16.80
2022-10-06T06:55:11.851Z,13.90
2022-10-06T06:57:39.623Z,9.50
2022-10-06T07:00:10.776Z,6.03
2022-10-06T07:02:40.103Z,12.80
2022-10-06T07:05:08.380Z,17.47
2022-10-06T07:07:36.906Z,12.77
2022-10-06T07:10:05.526Z,12.57
2022-10-06T07:12:34.991Z,15.17
2022-10-06T07:15:20.671Z,12.70
2022-10-06T07:18:11.488Z,9.37
2022-10-06T07:20:56.680Z,6.80
2022-10-06T07:23:43.370Z,14.23
2022-10-06T07:26:18.378Z,16.67
2022-10-06T07:28:48.685Z,14.27
2022-10-06T07:31:19.137Z,11.77
2022-10-06T07:33:49.419Z,11.13
2022-10-06T07:36:18.372Z,10.23
2022-10-06T07:38:47.278Z,10.67
2022-10-06T07:41:19.973Z,10.73
2022-10-06T07:43:53.684Z,12.53
2022-10-06T07:46:21.578Z,11.83
2022-10-06T07:48:59.206Z,10.60
2022-10-06T07:51:28.172Z,9.03
2022-10-06T07:53:57.843Z,9.67
2022-10-06T07:56:34.845Z,9.03
2022-10-06T07:59:03.177Z,12.13
2022-10-06T08:01:31.391Z,13.00
2022-10-06T08:04:00.550Z,10.20
2022-10-06T08:06:30.076Z,8.53
2022-10-06T08:08:57.933Z,14.80
2022-10-06T08:11:25.819Z,10.73
2022-10-06T08:13:53.636Z,9.30
2022-10-06T08:16:23.439Z,11.67
2022-10-06T08:18:53.390Z,12.07
2022-10-06T08:21:25.269Z,14.03
2022-10-06T08:23:57.262Z,13.43
2022-10-06T08:26:26.287Z,12.20
2022-10-06T08:28:57.528Z,14.13
2022-10-06T08:31:27.362Z,11.83
2022-10-06T08:33:57.128Z,15.57
2022-10-06T08:36:31.419Z,11.40
2022-10-06T08:39:00.430Z,10.55
2022-10-06T08:41:35.504Z,10.37
2022-10-06T08:44:08.422Z,16.65
2022-10-06T08:46:40.628Z,14.40
2022-10-06T08:49:17.063Z,15.77
2022-10-06T08:51:53.668Z,10.17
2022-10-06T08:54:29.921Z,12.67
2022-10-06T08:57:03.615Z,11.23
2022-10-06T08:59:34.965Z,12.82
2022-10-06T09:02:08.062Z,10.50
2022-10-06T09:04:35.898Z,10.73
2022-10-06T09:07:11.527Z,13.65
2022-10-06T09:10:01.083Z,7.53
2022-10-06T09:12:33.710Z,12.77
2022-10-06T09:15:16.384Z,10.67
2022-10-06T09:17:50.206Z,11.13
2022-10-06T09:20:22.704Z,9.13
2022-10-06T09:22:52.626Z,13.40
2022-10-06T09:25:25.392Z,8.98
2022-10-06T09:27:56.026Z,11.47
2022-10-06T09:30:26.284Z,12.10
2022-10-06T09:33:00.069Z,8.32
2022-10-06T09:35:30.064Z,17.17
2022-10-06T09:38:08.203Z,7.97
2022-10-06T09:40:39.538Z,15.05
2022-10-06T09:43:19.418Z,8.48
2022-10-06T09:45:47.164Z,8.23
2022-10-06T09:48:24.771Z,10.70
2022-10-06T09:51:08.963Z,10.20
2022-10-06T09:53:39.487Z,13.35
2022-10-06T09:56:15.576Z,12.05
2022-10-06T09:58:56.274Z,10.50
2022-10-06T10:01:26.670Z,13.88
2022-10-06T10:04:20.708Z,11.55
2022-10-06T10:06:48.675Z,8.98
2022-10-06T10:09:25.947Z,9.23
2022-10-06T10:12:28.175Z,14.32
2022-10-06T10:14:58.846Z,13.02
2022-10-06T10:17:45.895Z,6.20
2022-10-06T10:20:37.130Z,10.35
2022-10-06T10:23:27.290Z,10.13
2022-10-06T10:26:26.752Z,7.65
2022-10-06T10:29:14.113Z,4.60
2022-10-06T10:31:55.465Z,6.85
2022-10-06T10:34:46.046Z,7.80
2022-10-06T10:37:17.310Z,6.32
2022-10-06T10:39:51.611Z,9.20
2022-10-06T10:42:28.658Z,7.55
2022-10-06T10:45:00.915Z,5.07
2022-10-06T10:47:34.223Z,7.25
2022-10-06T10:50:08.408Z,10.85
2022-10-06T10:52:41.321Z,6.63
2022-10-06T10:55:19.651Z,8.68
2022-10-06T10:57:51.283Z,7.28
2022-10-06T11:00:21.928Z,4.15
2022-10-06T11:02:51.190Z,8.27
2022-10-06T11:05:36.444Z,7.20
2022-10-06T11:08:11.354Z,7.75
2022-10-06T11:10:45.514Z,6.03
2022-10-06T11:13:22.579Z,9.95
2022-10-06T11:16:25.526Z,6.90
2022-10-06T11:19:08.786Z,6.82
2022-10-06T11:21:43.413Z,5.03
2022-10-06T11:24:17.516Z,5.88
2022-10-06T11:27:11.195Z,6.97
2022-10-06T11:29:51.914Z,7.75
2022-10-06T11:32:28.769Z,8.48
2022-10-06T11:35:00.603Z,8.25
2022-10-06T11:37:39.762Z,4.70
2022-10-06T11:40:28.619Z,5.63
2022-10-06T11:43:03.263Z,6.70
2022-10-06T11:45:40.452Z,4.50
2022-10-06T11:48:24.163Z,7.53
2022-10-06T11:50:55.276Z,2.83
2022-10-06T11:53:40.121Z,7.00
2022-10-06T11:56:37.207Z,3.78
2022-10-06T11:59:13.367Z,5.97
2022-10-06T12:01:56.685Z,5.57
2022-10-06T12:04:26.249Z,7.18
2022-10-06T12:07:04.491Z,5.53
2022-10-06T12:09:51.942Z,5.75
2022-10-06T12:13:05.437Z,5.32
2022-10-06T12:18:54.623Z,7.80
2022-10-06T12:21:35.796Z,7.20
2022-10-06T12:24:23.317Z,10.35
2022-10-06T12:27:07.679Z,5.25
2022-10-06T12:29:43.586Z,4.63
2022-10-06T12:32:29.617Z,7.88
2022-10-06T12:35:04.169Z,7.57
2022-10-06T12:37:53.040Z,7.63
2022-10-06T12:40:49.156Z,9.60
2022-10-06T12:43:54.919Z,7.45
2022-10-06T12:46:30.004Z,7.53
2022-10-06T12:49:31.951Z,7.50
2022-10-06T12:52:09.136Z,8.50
2022-10-06T12:54:46.146Z,5.10
2022-10-06T12:57:18.681Z,6.60
2022-10-06T12:59:47.395Z,6.77
2022-10-06T13:02:20.022Z,4.38
2022-10-06T13:04:52.500Z,6.72
2022-10-06T13:07:23.386Z,8.10
2022-10-06T13:09:55.364Z,7.22
2022-10-06T13:12:26.687Z,6.75
2022-10-06T13:15:23.722Z,5.40
2022-10-06T13:17:54.431Z,4.45
2022-10-06T13:20:32.073Z,5.95
2022-10-06T13:23:03.059Z,4.65
2022-10-06T13:25:36.630Z,4.25
2022-10-06T13:28:04.375Z,6.22
2022-10-06T13:30:37.697Z,5.03
2022-10-06T13:33:08.395Z,6.13
2022-10-06T13:35:36.261Z,5.32
2022-10-06T13:38:06.370Z,4.47
2022-10-06T13:40:47.808Z,3.97
2022-10-06T13:43:20.119Z,5.82
2022-10-06T13:45:49.350Z,4.00
2022-10-06T13:48:20.480Z,4.57
2022-10-06T13:50:49.985Z,6.60
2022-10-06T13:53:28.319Z,5.78
2022-10-06T13:55:56.355Z,6.20
2022-10-06T13:58:27.744Z,4.35
2022-10-06T14:00:58.118Z,3.75
2022-10-06T14:03:29.334Z,9.05
2022-10-06T14:06:09.415Z,4.50
2022-10-06T14:08:38.798Z,6.80
2022-10-06T14:11:08.875Z,5.77
2022-10-06T14:13:51.741Z,5.88
2022-10-06T14:16:22.005Z,7.10
2022-10-06T14:21:38.542Z,9.60
2022-10-06T14:24:23.788Z,5.97
2022-10-06T14:26:52.089Z,7.22
2022-10-06T14:29:20.295Z,6.60
2022-10-06T14:31:48.824Z,2.95
2022-10-06T14:34:18.388Z,5.68
2022-10-06T14:36:48.026Z,6.53
2022-10-06T14:39:17.212Z,3.70
2022-10-06T14:41:45.470Z,8.93
2022-10-06T14:44:15.513Z,5.93
2022-10-06T14:46:45.279Z,8.05
2022-10-06T14:49:14.351Z,8.40
2022-10-06T14:51:44.408Z,5.25
2022-10-06T14:54:12.570Z,4.60
2022-10-06T14:56:42.294Z,3.50
2022-10-06T14:59:14.421Z,4.97
2022-10-06T15:01:42.212Z,5.80
2022-10-06T15:04:13.516Z,6.00
2022-10-06T15:06:59.144Z,5.90
2022-10-06T15:09:29.711Z,4.88
2022-10-06T15:12:00.791Z,3.35
2022-10-06T15:14:29.600Z,7.82
2022-10-06T15:16:59.104Z,4.25
2022-10-06T15:19:29.950Z,3.70
2022-10-06T15:21:57.713Z,5.25
2022-10-06T15:24:25.472Z,7.03
2022-10-06T15:27:10.601Z,5.00
2022-10-06T15:29:39.630Z,5.82
2022-10-06T15:32:08.238Z,6.25
2022-10-06T15:34:37.678Z,5.90
2022-10-06T15:37:06.167Z,7.07
2022-10-06T15:39:36.808Z,7.22
2022-10-06T15:42:05.540Z,3.13
2022-10-06T15:44:34.901Z,4.65
2022-10-06T15:47:06.223Z,3.72
2022-10-06T15:49:38.215Z,7.68
2022-10-06T15:52:06.885Z,2.97
2022-10-06T15:54:37.772Z,5.47
2022-10-06T15:57:08.410Z,4.95
2022-10-06T15:59:36.412Z,6.03
2022-10-06T16:02:08.607Z,4.82
2022-10-06T16:04:48.820Z,4.35
2022-10-06T16:07:20.435Z,6.03
2022-10-06T16:09:49.816Z,2.92
2022-10-06T16:12:20.211Z,3.40
2022-10-06T16:14:48.244Z,3.70
2022-10-06T16:17:18.470Z,3.78
2022-10-06T16:19:46.898Z,2.80
2022-10-06T16:22:17.105Z,5.05
2022-10-06T16:24:44.804Z,3.53
2022-10-06T16:27:13.731Z,1.38
2022-10-06T16:29:41.666Z,6.68
2022-10-06T16:32:09.631Z,3.17
2022-10-06T16:34:38.729Z,2.45
2022-10-06T16:37:06.472Z,3.75
2022-10-06T16:39:34.196Z,3.38
2022-10-06T16:42:02.192Z,2.35
2022-10-06T16:44:29.899Z,2.30
2022-10-06T16:46:57.703Z,6.43
2022-10-06T16:49:27.177Z,4.65
2022-10-06T16:51:56.283Z,4.03
2022-10-06T16:54:24.835Z,3.30
2022-10-06T16:56:54.255Z,4.10
2022-10-06T16:59:23.447Z,4.00
2022-10-06T17:01:51.679Z,2.60
2022-10-06T17:04:21.565Z,5.80
2022-10-06T17:06:51.476Z,4.03
2022-10-06T17:09:21.930Z,3.17
2022-10-06T17:11:51.480Z,5.78
2022-10-06T17:14:21.137Z,3.60
2022-10-06T17:16:50.701Z,4.80
2022-10-06T17:19:20.325Z,3.07
2022-10-06T17:21:52.772Z,2.60
2022-10-06T17:24:25.481Z,3.57
2022-10-06T17:26:53.282Z,3.77
2022-10-06T17:29:22.994Z,2.53
2022-10-06T17:31:59.052Z,3.97
2022-10-06T17:34:32.382Z,3.70
2022-10-06T17:37:02.207Z,5.77
2022-10-06T17:39:31.946Z,2.87
2022-10-06T17:42:09.110Z,5.97
2022-10-06T17:44:36.951Z,9.87
2022-10-06T17:47:04.779Z,5.13
2022-10-06T17:49:34.728Z,2.80
2022-10-06T17:52:05.790Z,4.57
2022-10-06T17:54:34.842Z,7.83
2022-10-06T17:57:02.589Z,3.13
2022-10-06T17:59:31.954Z,4.03
2022-10-06T18:02:02.452Z,2.90
2022-10-06T18:04:31.045Z,3.30
2022-10-06T18:06:58.867Z,5.17
2022-10-06T18:09:26.832Z,4.60
2022-10-06T18:11:56.263Z,3.90
2022-10-06T18:14:25.741Z,4.00
2022-10-06T18:16:56.652Z,5.57
2022-10-06T18:19:29.737Z,6.23
2022-10-06T18:21:59.023Z,5.63
2022-10-06T18:24:31.310Z,10.10
2022-10-06T18:27:01.658Z,11.13
2022-10-06T18:29:31.948Z,13.83
2022-10-06T18:32:27.773Z,10.73
2022-10-06T18:37:38.776Z,14.87
2022-10-06T18:40:17.884Z,19.93
2022-10-06T18:42:51.014Z,19.30
2022-10-06T18:45:39.451Z,13.53
2022-10-06T18:48:24.944Z,8.77
2022-10-06T18:51:02.367Z,8.80
2022-10-06T18:53:39.037Z,9.07
2022-10-06T18:56:07.755Z,11.53
2022-10-06T18:58:40.445Z,9.77
2022-10-06T19:01:09.017Z,9.07
2022-10-06T19:03:37.194Z,8.97
2022-10-06T19:06:05.111Z,6.60
2022-10-06T19:08:33.031Z,6.93
2022-10-06T19:11:20.597Z,7.30
2022-10-06T19:13:52.012Z,6.03
2022-10-06T19:16:21.085Z,5.67
2022-10-06T19:18:50.578Z,5.60
2022-10-06T19:21:18.302Z,7.20
2022-10-06T19:23:46.348Z,8.40
2022-10-06T19:26:15.787Z,7.13
2022-10-06T19:28:43.554Z,5.30
2022-10-06T19:31:14.945Z,5.77
2022-10-06T19:33:43.220Z,6.20
2022-10-06T19:36:11.471Z,7.50
2022-10-06T19:38:40.544Z,7.47
2022-10-06T19:41:25.645Z,7.10
2022-10-06T19:43:57.952Z,6.63
2022-10-06T19:46:31.425Z,8.90
2022-10-06T19:49:05.455Z,6.03
2022-10-06T19:51:34.417Z,5.90
2022-10-06T19:54:03.034Z,8.10
2022-10-06T19:56:32.989Z,9.83
2022-10-06T19:59:00.813Z,5.70
2022-10-06T20:01:31.405Z,6.27
2022-10-06T20:04:00.095Z,9.40
2022-10-06T20:06:30.564Z,7.50
2022-10-06T20:08:58.765Z,5.90
2022-10-06T20:11:29.720Z,7.93
2022-10-06T20:13:57.602Z,8.83
2022-10-06T20:16:25.355Z,7.47
2022-10-06T20:18:54.490Z,7.83
2022-10-06T20:21:24.586Z,8.20
2022-10-06T20:23:53.631Z,7.87
2022-10-06T20:26:24.632Z,7.87
2022-10-06T20:28:52.647Z,9.63
2022-10-06T20:31:24.316Z,6.73
2022-10-06T20:33:56.331Z,5.90
2022-10-06T20:36:26.516Z,8.57
2022-10-06T20:39:15.316Z,8.43
2022-10-06T20:41:45.850Z,9.37
2022-10-06T20:44:14.273Z,10.03
2022-10-06T20:46:42.554Z,8.67
2022-10-06T20:49:14.846Z,9.07
2022-10-06T20:51:46.556Z,9.17
2022-10-06T20:54:16.078Z,9.27
2022-10-06T20:56:44.063Z,6.27
2022-10-06T20:59:13.015Z,8.33
2022-10-06T21:01:41.043Z,5.83
2022-10-06T21:04:09.520Z,7.07
2022-10-06T21:06:38.955Z,8.73
2022-10-06T21:09:07.912Z,8.90
2022-10-06T21:11:35.940Z,6.67
2022-10-06T21:14:04.119Z,7.10
2022-10-06T21:16:34.287Z,5.67
2022-10-06T21:19:03.840Z,6.77
2022-10-06T21:21:32.084Z,6.30
2022-10-06T21:24:02.127Z,6.37
2022-10-06T21:26:30.138Z,6.50
2022-10-06T21:28:59.175Z,5.30
2022-10-06T21:31:28.270Z,6.23
2022-10-06T21:33:56.758Z,5.17
2022-10-06T21:36:26.128Z,6.63
2022-10-06T21:38:56.482Z,7.63
2022-10-06T21:41:31.434Z,7.37
2022-10-06T21:44:00.598Z,9.90
2022-10-06T21:46:30.322Z,7.20
2022-10-06T21:48:59.966Z,4.83
2022-10-06T21:51:29.050Z,11.50
2022-10-06T21:53:57.797Z,11.53
2022-10-06T21:56:28.576Z,7.30
2022-10-06T21:58:57.054Z,7.13
2022-10-06T22:01:26.819Z,7.93
2022-10-06T22:03:54.881Z,9.70
2022-10-06T22:06:22.774Z,8.70
2022-10-06T22:08:50.957Z,7.60
2022-10-06T22:11:21.414Z,11.47
2022-10-06T22:13:53.763Z,7.50
2022-10-06T22:16:23.686Z,10.60
2022-10-06T22:18:52.231Z,8.20
2022-10-06T22:21:22.770Z,8.97
2022-10-06T22:23:55.704Z,10.53
2022-10-06T22:26:23.631Z,13.23
2022-10-06T22:28:56.749Z,11.00
2022-10-06T22:31:26.485Z,13.03
2022-10-06T22:33:56.382Z,9.73
2022-10-06T22:36:25.073Z,7.47
2022-10-06T22:38:52.857Z,8.60
2022-10-06T22:41:20.706Z,10.03
2022-10-06T22:43:48.580Z,11.57
2022-10-06T22:46:17.708Z,7.67
2022-10-06T22:48:45.445Z,9.00
2022-10-06T22:51:13.089Z,9.93
2022-10-06T22:53:40.806Z,9.27
2022-10-06T22:56:08.873Z,10.77
2022-10-06T22:58:38.723Z,12.97
2022-10-06T23:01:11.388Z,10.87
2022-10-06T23:03:41.111Z,12.67
2022-10-06T23:06:11.278Z,11.00
2022-10-06T23:08:40.247Z,16.90
2022-10-06T23:11:10.265Z,14.47
2022-10-06T23:13:38.349Z,12.53
2022-10-06T23:16:08.465Z,10.20
2022-10-06T23:18:38.221Z,13.10
2022-10-06T23:21:09.073Z,15.77
2022-10-06T23:23:37.368Z,13.70
2022-10-06T23:26:06.485Z,13.30
2022-10-06T23:28:34.433Z,11.00
2022-10-06T23:31:04.296Z,15.00
2022-10-06T23:33:32.769Z,11.70
2022-10-06T23:36:01.968Z,16.27
2022-10-06T23:38:31.116Z,12.10
2022-10-06T23:40:59.226Z,9.70
2022-10-06T23:43:26.997Z,11.77
2022-10-06T23:45:54.864Z,14.20
2022-10-06T23:48:22.686Z,9.93
2022-10-06T23:50:58.022Z,11.93
2022-10-06T23:53:26.006Z,12.10
2022-10-06T23:55:55.335Z,11.83
2022-10-06T23:58:23.819Z,13.97
